Haines, AK

7:52 PM AKST on January 18, 2017 (GMT -0900)
Letnikof Cove | | Change Station
Active Advisory: Winter Storm Warning

Elev 230 ft 59.17 °N, 135.39 °W | Updated 20 seconds ago

Overcast
Overcast
23.0 °F
Feels Like 13 °F
N
8.9
Wind Variable Wind from North
Gusts 9.8 mph

Today
High -- | Low -- °F
--% Chance of Precip.
Yesterday
High -- | Low -- °F
Precip. -- in
Pressure 28.90 in
Visibility 1.2 miles
Clouds Overcast 1800 ft
Windchill 13 °F
Dew Point 22 °F
Humidity 97%
Rainfall 0.00 in
Snow Depth Not available.
8:38 AM 3:47 PM
Waning Gibbous, 57% visible
METAR PAHN 190354Z AUTO 30015G20KT 1 1/4SM BR OVC018 M06/M08 A2889 RMK AO2 PK WND 31026/0324 SLP786 T10561078 PWINO FZRANO TSNO $
Pressure 28.90 in
Visibility 1.2 miles
Clouds Overcast 1800 ft
Windchill 13 °F
Dew Point 22 °F
Humidity 97%
Rainfall 0.00 in
Snow Depth Not available.
8:38 AM 3:47 PM
Waning Gibbous, 57% visible
METAR PAHN 190354Z AUTO 30015G20KT 1 1/4SM BR OVC018 M06/M08 A2889 RMK AO2 PK WND 31026/0324 SLP786 T10561078 PWINO FZRANO TSNO $

Get Your Daily Forecast Email!

Thanks for signing up!

Be on the lookout for a verification email in your inbox.

You'll start receiving the daily forecast at 8 AM.

×

10-Day Weather Forecast

Almanac

Astronomy

Jan. 18, 2017 Rise Set
Actual Time
Civil Twilight
Nautical Twilight
Astronomical Twilight
Moon
Length of Visible Light
Length of Day
Tomorrow will be .
, % of the Moon is Illuminated

Today's Extremes

State Highs State Lows

Community

WunderPhotos

Upload Photos

1,962,540 photos uploaded!

WunderBlog® & News

Nearby

Air Quality

  Air Quality AQ Index Pollutant
Not available.

Snow Depth

Station Depth Elevation

Earthquake Activity

City Distance Mag. Time & Date
Minimum magnitude displayed is 2.5.

Coastal Water Temperatures

Place Temperature

Stations

Nearby Weather Stations

Station Location Temp. Windchill Dew Point Humidity Wind Precip. Elev Updated Type
                   

Watches & Warnings

Winter Storm Warning
Issued: 11:57 AM AKST Jan. 18, 2017 – National Weather Service

... Winter Storm Warning remains in effect from 3 PM this
afternoon to 6 am akst Thursday...

* location... the town of Haines south to Mud Bay.

* Snow... 5 to 9 inches.

* Timing... snow will increase in intensity this afternoon.
Heaviest snow is expected this evening through late tonight.
Snowfall rates will diminish early Thursday morning.

* Impacts... travel will become hazardous. Heavy snow will result
in significantly reduced visibilities.

Precautionary/preparedness actions...

A warning means that a winter storm is already occurring or
imminent. This storm could pose a threat to life and property.

This statement will be updated by 8 PM akst Wednesday or sooner
if conditions warrant.